sensor_id;sensor_type;location;lat;lon;timestamp;P1;durP1;ratioP1;P2;durP2;ratioP2
21569;SDS011;57598;50.888;4.746;2022-09-20T00:01:34;46.08;;;42.67;;
21569;SDS011;57598;50.888;4.746;2022-09-20T00:04:03;46.10;;;42.70;;
21569;SDS011;57598;50.888;4.746;2022-09-20T00:06:31;45.95;;;42.50;;
21569;SDS011;57598;50.888;4.746;2022-09-20T00:08:58;45.58;;;42.15;;
21569;SDS011;57598;50.888;4.746;2022-09-20T00:11:27;46.58;;;43.08;;
21569;SDS011;57598;50.888;4.746;2022-09-20T00:13:55;45.47;;;42.08;;
21569;SDS011;57598;50.888;4.746;2022-09-20T00:16:23;46.00;;;42.50;;
21569;SDS011;57598;50.888;4.746;2022-09-20T00:18:52;46.08;;;42.58;;
21569;SDS011;57598;50.888;4.746;2022-09-20T00:21:21;45.25;;;41.75;;
21569;SDS011;57598;50.888;4.746;2022-09-20T00:23:48;47.90;;;44.20;;
21569;SDS011;57598;50.888;4.746;2022-09-20T00:26:16;46.65;;;43.05;;
21569;SDS011;57598;50.888;4.746;2022-09-20T00:28:43;46.38;;;42.78;;
21569;SDS011;57598;50.888;4.746;2022-09-20T00:31:11;47.60;;;43.90;;
21569;SDS011;57598;50.888;4.746;2022-09-20T00:33:38;48.00;;;44.20;;
21569;SDS011;57598;50.888;4.746;2022-09-20T00:36:25;48.70;;;44.90;;
21569;SDS011;57598;50.888;4.746;2022-09-20T00:38:53;47.92;;;44.05;;
21569;SDS011;57598;50.888;4.746;2022-09-20T00:41:20;48.30;;;44.50;;
21569;SDS011;57598;50.888;4.746;2022-09-20T00:43:48;47.30;;;43.50;;
21569;SDS011;57598;50.888;4.746;2022-09-20T00:46:18;47.83;;;44.03;;
21569;SDS011;57598;50.888;4.746;2022-09-20T00:48:47;47.70;;;43.80;;
21569;SDS011;57598;50.888;4.746;2022-09-20T00:51:16;47.75;;;43.85;;
21569;SDS011;57598;50.888;4.746;2022-09-20T00:53:46;48.10;;;44.20;;
21569;SDS011;57598;50.888;4.746;2022-09-20T00:56:14;48.28;;;44.28;;
21569;SDS011;57598;50.888;4.746;2022-09-20T00:58:44;48.75;;;44.75;;
21569;SDS011;57598;50.888;4.746;2022-09-20T01:01:12;48.65;;;44.55;;
21569;SDS011;57598;50.888;4.746;2022-09-20T01:03:40;48.28;;;44.28;;
21569;SDS011;57598;50.888;4.746;2022-09-20T01:06:08;48.45;;;44.45;;
21569;SDS011;57598;50.888;4.746;2022-09-20T01:08:36;47.67;;;43.67;;
21569;SDS011;57598;50.888;4.746;2022-09-20T01:11:05;47.92;;;43.92;;
21569;SDS011;57598;50.888;4.746;2022-09-20T01:13:33;48.20;;;44.20;;
21569;SDS011;57598;50.888;4.746;2022-09-20T01:16:00;48.63;;;44.63;;
21569;SDS011;57598;50.888;4.746;2022-09-20T01:18:28;48.45;;;44.45;;
21569;SDS011;57598;50.888;4.746;2022-09-20T01:20:56;47.85;;;43.85;;
21569;SDS011;57598;50.888;4.746;2022-09-20T01:23:34;49.63;;;45.53;;
21569;SDS011;57598;50.888;4.746;2022-09-20T01:26:09;48.63;;;44.63;;
21569;SDS011;57598;50.888;4.746;2022-09-20T01:28:40;48.40;;;44.40;;
21569;SDS011;57598;50.888;4.746;2022-09-20T01:31:12;48.67;;;44.67;;
21569;SDS011;57598;50.888;4.746;2022-09-20T01:33:42;48.55;;;44.55;;
21569;SDS011;57598;50.888;4.746;2022-09-20T01:36:12;48.80;;;44.80;;
21569;SDS011;57598;50.888;4.746;2022-09-20T01:38:41;48.25;;;44.25;;
21569;SDS011;57598;50.888;4.746;2022-09-20T01:41:10;47.72;;;43.72;;
21569;SDS011;57598;50.888;4.746;2022-09-20T01:43:41;49.40;;;45.30;;
21569;SDS011;57598;50.888;4.746;2022-09-20T01:46:18;49.70;;;45.60;;
21569;SDS011;57598;50.888;4.746;2022-09-20T01:48:48;48.20;;;44.20;;
21569;SDS011;57598;50.888;4.746;2022-09-20T01:51:28;47.80;;;43.80;;
21569;SDS011;57598;50.888;4.746;2022-09-20T01:54:20;48.17;;;44.17;;
21569;SDS011;57598;50.888;4.746;2022-09-20T01:56:57;47.80;;;43.80;;
21569;SDS011;57598;50.888;4.746;2022-09-20T02:05:17;46.33;;;42.53;;
21569;SDS011;57598;50.888;4.746;2022-09-20T02:08:02;46.92;;;43.08;;
21569;SDS011;57598;50.888;4.746;2022-09-20T02:10:46;47.25;;;43.45;;
21569;SDS011;57598;50.888;4.746;2022-09-20T02:13:25;46.72;;;42.92;;
21569;SDS011;57598;50.888;4.746;2022-09-20T02:16:04;47.90;;;44.00;;
21569;SDS011;57598;50.888;4.746;2022-09-20T02:18:37;46.97;;;43.08;;
21569;SDS011;57598;50.888;4.746;2022-09-20T02:21:13;49.05;;;45.05;;
21569;SDS011;57598;50.888;4.746;2022-09-20T02:23:47;47.20;;;43.30;;
21569;SDS011;57598;50.888;4.746;2022-09-20T02:26:21;47.83;;;43.92;;
21569;SDS011;57598;50.888;4.746;2022-09-20T02:28:52;47.92;;;44.03;;
21569;SDS011;57598;50.888;4.746;2022-09-20T02:31:22;47.60;;;43.70;;
21569;SDS011;57598;50.888;4.746;2022-09-20T02:34:01;46.13;;;42.33;;
21569;SDS011;57598;50.888;4.746;2022-09-20T02:36:37;46.95;;;43.05;;
21569;SDS011;57598;50.888;4.746;2022-09-20T02:39:07;46.80;;;42.95;;
21569;SDS011;57598;50.888;4.746;2022-09-20T02:44:27;46.55;;;42.65;;
21569;SDS011;57598;50.888;4.746;2022-09-20T02:46:58;46.75;;;42.85;;
21569;SDS011;57598;50.888;4.746;2022-09-20T02:49:28;45.72;;;41.92;;
21569;SDS011;57598;50.888;4.746;2022-09-20T02:51:59;46.53;;;42.63;;
21569;SDS011;57598;50.888;4.746;2022-09-20T02:54:33;45.10;;;41.38;;
21569;SDS011;57598;50.888;4.746;2022-09-20T02:57:04;45.83;;;41.92;;
21569;SDS011;57598;50.888;4.746;2022-09-20T02:59:38;45.90;;;42.00;;
21569;SDS011;57598;50.888;4.746;2022-09-20T03:02:09;46.43;;;42.57;;
21569;SDS011;57598;50.888;4.746;2022-09-20T03:04:44;46.13;;;42.33;;
21569;SDS011;57598;50.888;4.746;2022-09-20T03:07:17;46.15;;;42.25;;
21569;SDS011;57598;50.888;4.746;2022-09-20T03:09:50;45.67;;;41.85;;
21569;SDS011;57598;50.888;4.746;2022-09-20T03:12:25;45.90;;;42.00;;
21569;SDS011;57598;50.888;4.746;2022-09-20T03:14:58;46.90;;;43.00;;
21569;SDS011;57598;50.888;4.746;2022-09-20T03:17:33;46.50;;;42.60;;
21569;SDS011;57598;50.888;4.746;2022-09-20T03:20:07;46.80;;;42.90;;
21569;SDS011;57598;50.888;4.746;2022-09-20T03:22:44;47.72;;;43.63;;
21569;SDS011;57598;50.888;4.746;2022-09-20T03:25:22;47.25;;;43.15;;
21569;SDS011;57598;50.888;4.746;2022-09-20T03:27:57;45.78;;;41.88;;
21569;SDS011;57598;50.888;4.746;2022-09-20T03:30:28;45.80;;;42.00;;
21569;SDS011;57598;50.888;4.746;2022-09-20T03:33:04;46.20;;;42.40;;
21569;SDS011;57598;50.888;4.746;2022-09-20T03:35:40;45.47;;;41.67;;
21569;SDS011;57598;50.888;4.746;2022-09-20T03:38:13;44.95;;;41.25;;
21569;SDS011;57598;50.888;4.746;2022-09-20T03:40:53;44.63;;;40.92;;
21569;SDS011;57598;50.888;4.746;2022-09-20T03:43:25;45.22;;;41.47;;
21569;SDS011;57598;50.888;4.746;2022-09-20T03:46:00;44.83;;;41.15;;
21569;SDS011;57598;50.888;4.746;2022-09-20T03:48:41;44.50;;;40.80;;
21569;SDS011;57598;50.888;4.746;2022-09-20T03:51:17;45.08;;;41.40;;
21569;SDS011;57598;50.888;4.746;2022-09-20T03:53:52;44.83;;;41.03;;
21569;SDS011;57598;50.888;4.746;2022-09-20T03:56:30;47.05;;;43.05;;
21569;SDS011;57598;50.888;4.746;2022-09-20T03:59:04;45.40;;;41.60;;
21569;SDS011;57598;50.888;4.746;2022-09-20T04:01:43;46.83;;;42.88;;
21569;SDS011;57598;50.888;4.746;2022-09-20T04:04:18;45.83;;;42.13;;
21569;SDS011;57598;50.888;4.746;2022-09-20T04:06:56;45.13;;;41.42;;
21569;SDS011;57598;50.888;4.746;2022-09-20T04:09:34;44.92;;;41.22;;
21569;SDS011;57598;50.888;4.746;2022-09-20T04:12:06;46.08;;;42.20;;
21569;SDS011;57598;50.888;4.746;2022-09-20T04:14:37;45.10;;;41.38;;
21569;SDS011;57598;50.888;4.746;2022-09-20T04:17:12;45.27;;;41.57;;
21569;SDS011;57598;50.888;4.746;2022-09-20T04:19:43;45.38;;;41.42;;
21569;SDS011;57598;50.888;4.746;2022-09-20T04:22:13;45.28;;;41.58;;
21569;SDS011;57598;50.888;4.746;2022-09-20T04:24:43;45.47;;;41.85;;
21569;SDS011;57598;50.888;4.746;2022-09-20T04:27:15;45.88;;;42.08;;
21569;SDS011;57598;50.888;4.746;2022-09-20T04:29:45;45.00;;;41.33;;
21569;SDS011;57598;50.888;4.746;2022-09-20T04:32:14;44.25;;;40.65;;
21569;SDS011;57598;50.888;4.746;2022-09-20T04:34:45;44.38;;;40.67;;
21569;SDS011;57598;50.888;4.746;2022-09-20T04:37:33;45.05;;;41.25;;
21569;SDS011;57598;50.888;4.746;2022-09-20T04:42:39;43.45;;;39.95;;
21569;SDS011;57598;50.888;4.746;2022-09-20T04:50:57;44.50;;;40.88;;
21569;SDS011;57598;50.888;4.746;2022-09-20T04:53:45;45.45;;;41.65;;
21569;SDS011;57598;50.888;4.746;2022-09-20T04:56:19;45.27;;;41.37;;
21569;SDS011;57598;50.888;4.746;2022-09-20T04:58:48;45.35;;;41.50;;
21569;SDS011;57598;50.888;4.746;2022-09-20T05:06:58;45.20;;;41.20;;
21569;SDS011;57598;50.888;4.746;2022-09-20T05:09:37;45.03;;;41.03;;
21569;SDS011;57598;50.888;4.746;2022-09-20T05:12:26;45.38;;;41.20;;
21569;SDS011;57598;50.888;4.746;2022-09-20T05:15:04;43.50;;;39.70;;
21569;SDS011;57598;50.888;4.746;2022-09-20T05:17:44;46.08;;;42.17;;
21569;SDS011;57598;50.888;4.746;2022-09-20T05:20:23;44.35;;;40.47;;
21569;SDS011;57598;50.888;4.746;2022-09-20T05:22:59;45.33;;;41.33;;
21569;SDS011;57598;50.888;4.746;2022-09-20T05:25:38;44.75;;;40.95;;
21569;SDS011;57598;50.888;4.746;2022-09-20T05:28:09;43.90;;;40.17;;
21569;SDS011;57598;50.888;4.746;2022-09-20T05:30:41;45.63;;;41.72;;
21569;SDS011;57598;50.888;4.746;2022-09-20T05:33:13;45.03;;;41.28;;
21569;SDS011;57598;50.888;4.746;2022-09-20T05:35:46;45.10;;;41.30;;
21569;SDS011;57598;50.888;4.746;2022-09-20T05:38:17;46.05;;;42.25;;
21569;SDS011;57598;50.888;4.746;2022-09-20T05:43:15;45.30;;;41.40;;
21569;SDS011;57598;50.888;4.746;2022-09-20T05:45:51;45.25;;;41.45;;
21569;SDS011;57598;50.888;4.746;2022-09-20T05:48:26;45.22;;;41.42;;
21569;SDS011;57598;50.888;4.746;2022-09-20T05:50:57;43.97;;;40.22;;
21569;SDS011;57598;50.888;4.746;2022-09-20T05:53:33;45.80;;;42.00;;
21569;SDS011;57598;50.888;4.746;2022-09-20T05:56:04;44.55;;;40.65;;
21569;SDS011;57598;50.888;4.746;2022-09-20T05:58:39;45.10;;;41.30;;
21569;SDS011;57598;50.888;4.746;2022-09-20T06:01:13;44.13;;;40.42;;
21569;SDS011;57598;50.888;4.746;2022-09-20T06:03:43;44.05;;;40.35;;
21569;SDS011;57598;50.888;4.746;2022-09-20T06:06:12;45.38;;;41.58;;
21569;SDS011;57598;50.888;4.746;2022-09-20T06:08:59;44.85;;;41.20;;
21569;SDS011;57598;50.888;4.746;2022-09-20T06:11:35;43.78;;;40.17;;
21569;SDS011;57598;50.888;4.746;2022-09-20T06:14:10;44.58;;;40.80;;
21569;SDS011;57598;50.888;4.746;2022-09-20T06:16:42;43.05;;;39.45;;
21569;SDS011;57598;50.888;4.746;2022-09-20T06:19:15;42.60;;;39.00;;
21569;SDS011;57598;50.888;4.746;2022-09-20T06:21:47;42.97;;;39.50;;
21569;SDS011;57598;50.888;4.746;2022-09-20T06:24:23;43.22;;;39.63;;
21569;SDS011;57598;50.888;4.746;2022-09-20T06:26:52;42.80;;;39.30;;
21569;SDS011;57598;50.888;4.746;2022-09-20T06:29:22;42.05;;;38.55;;
21569;SDS011;57598;50.888;4.746;2022-09-20T06:31:53;45.33;;;41.25;;
21569;SDS011;57598;50.888;4.746;2022-09-20T06:34:20;41.72;;;38.33;;
21569;SDS011;57598;50.888;4.746;2022-09-20T06:36:49;40.67;;;37.40;;
21569;SDS011;57598;50.888;4.746;2022-09-20T06:39:35;41.92;;;38.42;;
21569;SDS011;57598;50.888;4.746;2022-09-20T06:42:24;42.63;;;39.13;;
21569;SDS011;57598;50.888;4.746;2022-09-20T06:44:51;42.88;;;39.38;;
21569;SDS011;57598;50.888;4.746;2022-09-20T06:47:20;42.97;;;39.47;;
21569;SDS011;57598;50.888;4.746;2022-09-20T06:49:48;40.83;;;37.53;;
21569;SDS011;57598;50.888;4.746;2022-09-20T06:52:16;40.05;;;36.85;;
21569;SDS011;57598;50.888;4.746;2022-09-20T06:54:43;40.00;;;36.80;;
21569;SDS011;57598;50.888;4.746;2022-09-20T06:57:11;39.05;;;35.95;;
21569;SDS011;57598;50.888;4.746;2022-09-20T06:59:40;37.95;;;35.05;;
21569;SDS011;57598;50.888;4.746;2022-09-20T07:02:07;36.90;;;34.20;;
21569;SDS011;57598;50.888;4.746;2022-09-20T07:04:36;37.13;;;34.63;;
21569;SDS011;57598;50.888;4.746;2022-09-20T07:07:05;35.58;;;33.25;;
21569;SDS011;57598;50.888;4.746;2022-09-20T07:09:32;35.22;;;32.92;;
21569;SDS011;57598;50.888;4.746;2022-09-20T07:12:00;33.03;;;31.02;;
21569;SDS011;57598;50.888;4.746;2022-09-20T07:14:27;29.50;;;27.80;;
21569;SDS011;57598;50.888;4.746;2022-09-20T07:16:55;28.20;;;26.38;;
21569;SDS011;57598;50.888;4.746;2022-09-20T07:19:22;25.40;;;24.00;;
21569;SDS011;57598;50.888;4.746;2022-09-20T07:21:53;24.60;;;23.20;;
21569;SDS011;57598;50.888;4.746;2022-09-20T07:24:20;24.60;;;23.20;;
21569;SDS011;57598;50.888;4.746;2022-09-20T07:26:53;28.88;;;26.25;;
21569;SDS011;57598;50.888;4.746;2022-09-20T07:29:21;26.58;;;25.08;;
21569;SDS011;57598;50.888;4.746;2022-09-20T07:31:48;27.08;;;25.48;;
21569;SDS011;57598;50.888;4.746;2022-09-20T07:34:15;28.17;;;26.48;;
21569;SDS011;57598;50.888;4.746;2022-09-20T07:36:44;29.02;;;27.42;;
21569;SDS011;57598;50.888;4.746;2022-09-20T07:39:13;29.00;;;27.40;;
21569;SDS011;57598;50.888;4.746;2022-09-20T07:41:40;30.20;;;28.50;;
21569;SDS011;57598;50.888;4.746;2022-09-20T07:44:10;29.95;;;28.25;;
21569;SDS011;57598;50.888;4.746;2022-09-20T07:46:49;30.67;;;28.88;;
21569;SDS011;57598;50.888;4.746;2022-09-20T07:49:16;31.33;;;29.52;;
21569;SDS011;57598;50.888;4.746;2022-09-20T07:51:44;33.03;;;31.13;;
21569;SDS011;57598;50.888;4.746;2022-09-20T07:54:12;33.38;;;31.38;;
21569;SDS011;57598;50.888;4.746;2022-09-20T07:56:39;35.25;;;33.15;;
21569;SDS011;57598;50.888;4.746;2022-09-20T07:59:07;34.75;;;32.65;;
21569;SDS011;57598;50.888;4.746;2022-09-20T08:01:35;34.75;;;32.72;;
21569;SDS011;57598;50.888;4.746;2022-09-20T08:04:03;34.42;;;32.33;;
21569;SDS011;57598;50.888;4.746;2022-09-20T08:06:30;36.15;;;33.95;;
21569;SDS011;57598;50.888;4.746;2022-09-20T08:08:58;35.15;;;33.05;;
21569;SDS011;57598;50.888;4.746;2022-09-20T08:11:26;34.97;;;32.88;;
21569;SDS011;57598;50.888;4.746;2022-09-20T08:13:55;36.63;;;34.42;;
21569;SDS011;57598;50.888;4.746;2022-09-20T08:16:24;34.80;;;32.70;;
21569;SDS011;57598;50.888;4.746;2022-09-20T08:18:52;35.88;;;33.78;;
21569;SDS011;57598;50.888;4.746;2022-09-20T08:21:19;34.03;;;32.03;;
21569;SDS011;57598;50.888;4.746;2022-09-20T08:23:47;33.90;;;31.90;;
21569;SDS011;57598;50.888;4.746;2022-09-20T08:26:15;33.55;;;31.65;;
21569;SDS011;57598;50.888;4.746;2022-09-20T08:28:45;33.40;;;31.50;;
21569;SDS011;57598;50.888;4.746;2022-09-20T08:31:14;31.83;;;30.00;;
21569;SDS011;57598;50.888;4.746;2022-09-20T08:33:44;31.63;;;29.83;;
21569;SDS011;57598;50.888;4.746;2022-09-20T08:36:12;31.63;;;29.83;;
21569;SDS011;57598;50.888;4.746;2022-09-20T08:38:39;31.55;;;29.75;;
21569;SDS011;57598;50.888;4.746;2022-09-20T08:41:09;31.90;;;30.00;;
21569;SDS011;57598;50.888;4.746;2022-09-20T08:43:38;32.10;;;30.20;;
21569;SDS011;57598;50.888;4.746;2022-09-20T08:46:09;32.42;;;30.52;;
21569;SDS011;57598;50.888;4.746;2022-09-20T08:48:39;32.83;;;30.80;;
21569;SDS011;57598;50.888;4.746;2022-09-20T08:51:08;32.15;;;30.25;;
21569;SDS011;57598;50.888;4.746;2022-09-20T08:53:36;33.97;;;31.98;;
21569;SDS011;57598;50.888;4.746;2022-09-20T08:56:07;33.90;;;31.90;;
21569;SDS011;57598;50.888;4.746;2022-09-20T08:58:36;34.10;;;32.10;;
21569;SDS011;57598;50.888;4.746;2022-09-20T09:01:03;33.38;;;31.38;;
21569;SDS011;57598;50.888;4.746;2022-09-20T09:03:32;34.47;;;32.47;;
21569;SDS011;57598;50.888;4.746;2022-09-20T09:05:59;33.55;;;31.55;;
21569;SDS011;57598;50.888;4.746;2022-09-20T09:08:27;33.83;;;31.83;;
21569;SDS011;57598;50.888;4.746;2022-09-20T09:10:56;32.50;;;30.60;;
21569;SDS011;57598;50.888;4.746;2022-09-20T09:13:25;32.47;;;30.58;;
21569;SDS011;57598;50.888;4.746;2022-09-20T09:15:54;31.98;;;30.08;;
21569;SDS011;57598;50.888;4.746;2022-09-20T09:18:30;30.90;;;29.10;;
21569;SDS011;57598;50.888;4.746;2022-09-20T09:21:00;30.00;;;28.27;;
21569;SDS011;57598;50.888;4.746;2022-09-20T09:23:29;30.88;;;29.08;;
21569;SDS011;57598;50.888;4.746;2022-09-20T09:26:01;29.60;;;27.90;;
21569;SDS011;57598;50.888;4.746;2022-09-20T09:28:29;30.98;;;29.17;;
21569;SDS011;57598;50.888;4.746;2022-09-20T09:31:11;30.95;;;29.15;;
21569;SDS011;57598;50.888;4.746;2022-09-20T09:33:42;30.35;;;28.55;;
21569;SDS011;57598;50.888;4.746;2022-09-20T09:36:13;31.27;;;29.38;;
21569;SDS011;57598;50.888;4.746;2022-09-20T09:38:41;27.93;;;26.33;;
21569;SDS011;57598;50.888;4.746;2022-09-20T09:41:19;26.40;;;24.90;;
21569;SDS011;57598;50.888;4.746;2022-09-20T09:43:56;26.27;;;24.77;;
21569;SDS011;57598;50.888;4.746;2022-09-20T09:46:24;24.80;;;23.40;;
21569;SDS011;57598;50.888;4.746;2022-09-20T09:49:03;24.50;;;23.10;;
21569;SDS011;57598;50.888;4.746;2022-09-20T09:51:32;25.13;;;23.63;;
21569;SDS011;57598;50.888;4.746;2022-09-20T09:54:00;24.15;;;22.75;;
21569;SDS011;57598;50.888;4.746;2022-09-20T09:56:40;24.75;;;23.35;;
21569;SDS011;57598;50.888;4.746;2022-09-20T09:59:15;24.05;;;22.65;;
21569;SDS011;57598;50.888;4.746;2022-09-20T10:01:47;23.77;;;22.38;;
21569;SDS011;57598;50.888;4.746;2022-09-20T10:04:22;23.88;;;22.48;;
21569;SDS011;57598;50.888;4.746;2022-09-20T10:06:53;24.85;;;22.92;;
21569;SDS011;57598;50.888;4.746;2022-09-20T10:09:28;22.90;;;21.60;;
21569;SDS011;57598;50.888;4.746;2022-09-20T10:12:05;23.88;;;22.48;;
21569;SDS011;57598;50.888;4.746;2022-09-20T10:14:40;23.45;;;22.05;;
21569;SDS011;57598;50.888;4.746;2022-09-20T10:17:18;23.95;;;22.38;;
21569;SDS011;57598;50.888;4.746;2022-09-20T10:19:55;23.30;;;22.00;;
21569;SDS011;57598;50.888;4.746;2022-09-20T10:22:31;24.95;;;23.45;;
21569;SDS011;57598;50.888;4.746;2022-09-20T10:25:02;23.50;;;22.20;;
21569;SDS011;57598;50.888;4.746;2022-09-20T10:27:37;23.70;;;22.30;;
21569;SDS011;57598;50.888;4.746;2022-09-20T10:30:10;23.95;;;22.55;;
21569;SDS011;57598;50.888;4.746;2022-09-20T10:32:45;23.40;;;22.10;;
21569;SDS011;57598;50.888;4.746;2022-09-20T10:35:21;23.05;;;21.75;;
21569;SDS011;57598;50.888;4.746;2022-09-20T10:37:58;22.40;;;21.10;;
21569;SDS011;57598;50.888;4.746;2022-09-20T10:40:31;22.60;;;21.30;;
21569;SDS011;57598;50.888;4.746;2022-09-20T10:43:16;23.10;;;21.70;;
21569;SDS011;57598;50.888;4.746;2022-09-20T10:45:49;22.80;;;21.50;;
21569;SDS011;57598;50.888;4.746;2022-09-20T10:48:21;22.70;;;21.40;;
21569;SDS011;57598;50.888;4.746;2022-09-20T10:50:51;21.70;;;20.50;;
21569;SDS011;57598;50.888;4.746;2022-09-20T10:53:27;22.25;;;20.95;;
21569;SDS011;57598;50.888;4.746;2022-09-20T10:55:58;22.15;;;20.85;;
21569;SDS011;57598;50.888;4.746;2022-09-20T10:58:33;22.98;;;21.67;;
21569;SDS011;57598;50.888;4.746;2022-09-20T11:01:05;24.10;;;22.70;;
21569;SDS011;57598;50.888;4.746;2022-09-20T11:03:43;23.42;;;22.13;;
21569;SDS011;57598;50.888;4.746;2022-09-20T11:06:14;23.40;;;22.10;;
21569;SDS011;57598;50.888;4.746;2022-09-20T11:08:44;25.08;;;23.30;;
21569;SDS011;57598;50.888;4.746;2022-09-20T11:11:16;22.55;;;21.25;;
21569;SDS011;57598;50.888;4.746;2022-09-20T11:13:46;22.55;;;21.25;;
21569;SDS011;57598;50.888;4.746;2022-09-20T11:16:19;24.02;;;22.63;;
21569;SDS011;57598;50.888;4.746;2022-09-20T11:18:49;22.92;;;21.63;;
21569;SDS011;57598;50.888;4.746;2022-09-20T11:23:48;24.50;;;23.10;;
21569;SDS011;57598;50.888;4.746;2022-09-20T11:26:18;23.35;;;22.05;;
21569;SDS011;57598;50.888;4.746;2022-09-20T11:28:49;24.45;;;22.98;;
21569;SDS011;57598;50.888;4.746;2022-09-20T11:31:18;23.88;;;22.48;;
21569;SDS011;57598;50.888;4.746;2022-09-20T11:33:49;22.45;;;21.15;;
21569;SDS011;57598;50.888;4.746;2022-09-20T11:36:18;22.55;;;21.25;;
21569;SDS011;57598;50.888;4.746;2022-09-20T11:38:50;22.70;;;21.40;;
21569;SDS011;57598;50.888;4.746;2022-09-20T11:41:19;23.15;;;21.85;;
21569;SDS011;57598;50.888;4.746;2022-09-20T11:43:50;22.83;;;21.52;;
21569;SDS011;57598;50.888;4.746;2022-09-20T11:46:20;22.60;;;21.30;;
21569;SDS011;57598;50.888;4.746;2022-09-20T11:48:48;22.63;;;21.33;;
21569;SDS011;57598;50.888;4.746;2022-09-20T11:51:41;22.60;;;21.30;;
21569;SDS011;57598;50.888;4.746;2022-09-20T11:57:06;21.25;;;20.05;;
21569;SDS011;57598;50.888;4.746;2022-09-20T11:59:39;22.75;;;21.45;;
21569;SDS011;57598;50.888;4.746;2022-09-20T12:02:12;22.73;;;21.42;;
21569;SDS011;57598;50.888;4.746;2022-09-20T12:04:42;21.85;;;20.65;;
21569;SDS011;57598;50.888;4.746;2022-09-20T12:07:14;22.40;;;21.05;;
21569;SDS011;57598;50.888;4.746;2022-09-20T12:09:42;20.90;;;19.70;;
21569;SDS011;57598;50.888;4.746;2022-09-20T12:12:20;21.63;;;20.42;;
21569;SDS011;57598;50.888;4.746;2022-09-20T12:14:52;22.77;;;21.45;;
21569;SDS011;57598;50.888;4.746;2022-09-20T12:22:48;21.48;;;20.27;;
21569;SDS011;57598;50.888;4.746;2022-09-20T12:25:32;22.45;;;21.15;;
21569;SDS011;57598;50.888;4.746;2022-09-20T12:28:02;22.70;;;21.40;;
21569;SDS011;57598;50.888;4.746;2022-09-20T12:30:29;21.80;;;20.50;;
21569;SDS011;57598;50.888;4.746;2022-09-20T12:32:57;21.35;;;20.15;;
21569;SDS011;57598;50.888;4.746;2022-09-20T12:38:31;22.00;;;20.70;;
21569;SDS011;57598;50.888;4.746;2022-09-20T12:41:02;21.52;;;20.33;;
21569;SDS011;57598;50.888;4.746;2022-09-20T12:43:35;21.75;;;20.55;;
21569;SDS011;57598;50.888;4.746;2022-09-20T12:46:03;21.77;;;20.57;;
21569;SDS011;57598;50.888;4.746;2022-09-20T12:48:32;22.17;;;20.88;;
21569;SDS011;57598;50.888;4.746;2022-09-20T12:51:04;22.48;;;21.20;;
21569;SDS011;57598;50.888;4.746;2022-09-20T12:53:57;23.15;;;21.85;;
21569;SDS011;57598;50.888;4.746;2022-09-20T12:56:24;23.23;;;21.92;;
21569;SDS011;57598;50.888;4.746;2022-09-20T12:58:54;24.25;;;22.85;;
21569;SDS011;57598;50.888;4.746;2022-09-20T13:03:51;23.17;;;21.88;;
21569;SDS011;57598;50.888;4.746;2022-09-20T13:06:24;23.15;;;21.85;;
21569;SDS011;57598;50.888;4.746;2022-09-20T13:08:53;23.88;;;22.50;;
21569;SDS011;57598;50.888;4.746;2022-09-20T13:11:22;23.00;;;21.70;;
21569;SDS011;57598;50.888;4.746;2022-09-20T13:13:54;23.90;;;22.50;;
21569;SDS011;57598;50.888;4.746;2022-09-20T13:16:25;22.65;;;21.35;;
21569;SDS011;57598;50.888;4.746;2022-09-20T13:18:55;22.88;;;21.58;;
21569;SDS011;57598;50.888;4.746;2022-09-20T13:21:23;22.63;;;21.33;;
21569;SDS011;57598;50.888;4.746;2022-09-20T13:23:52;21.58;;;20.38;;
21569;SDS011;57598;50.888;4.746;2022-09-20T13:26:20;22.35;;;21.05;;
21569;SDS011;57598;50.888;4.746;2022-09-20T13:28:49;21.70;;;20.50;;
21569;SDS011;57598;50.888;4.746;2022-09-20T13:31:23;22.40;;;21.10;;
21569;SDS011;57598;50.888;4.746;2022-09-20T13:33:51;22.58;;;21.08;;
21569;SDS011;57598;50.888;4.746;2022-09-20T13:36:20;20.98;;;19.77;;
21569;SDS011;57598;50.888;4.746;2022-09-20T13:38:50;21.20;;;20.00;;
21569;SDS011;57598;50.888;4.746;2022-09-20T13:41:19;20.92;;;19.73;;
21569;SDS011;57598;50.888;4.746;2022-09-20T13:43:47;22.35;;;21.05;;
21569;SDS011;57598;50.888;4.746;2022-09-20T13:46:15;22.20;;;20.92;;
21569;SDS011;57598;50.888;4.746;2022-09-20T13:48:46;22.45;;;21.15;;
21569;SDS011;57598;50.888;4.746;2022-09-20T13:51:15;22.80;;;21.50;;
21569;SDS011;57598;50.888;4.746;2022-09-20T13:53:43;23.33;;;22.02;;
21569;SDS011;57598;50.888;4.746;2022-09-20T13:56:14;23.52;;;22.23;;
21569;SDS011;57598;50.888;4.746;2022-09-20T13:58:42;23.40;;;22.10;;
21569;SDS011;57598;50.888;4.746;2022-09-20T14:01:18;23.45;;;21.83;;
21569;SDS011;57598;50.888;4.746;2022-09-20T14:03:48;23.60;;;22.30;;
21569;SDS011;57598;50.888;4.746;2022-09-20T14:06:16;21.90;;;20.70;;
21569;SDS011;57598;50.888;4.746;2022-09-20T14:08:44;23.17;;;21.88;;
21569;SDS011;57598;50.888;4.746;2022-09-20T14:11:12;22.20;;;20.95;;
21569;SDS011;57598;50.888;4.746;2022-09-20T14:13:41;22.73;;;21.42;;
21569;SDS011;57598;50.888;4.746;2022-09-20T14:16:09;22.55;;;21.25;;
21569;SDS011;57598;50.888;4.746;2022-09-20T14:18:38;22.90;;;21.60;;
21569;SDS011;57598;50.888;4.746;2022-09-20T14:21:07;22.60;;;21.30;;
21569;SDS011;57598;50.888;4.746;2022-09-20T14:23:47;22.33;;;21.02;;
21569;SDS011;57598;50.888;4.746;2022-09-20T14:26:22;22.65;;;21.35;;
21569;SDS011;57598;50.888;4.746;2022-09-20T14:28:50;22.25;;;20.95;;
21569;SDS011;57598;50.888;4.746;2022-09-20T14:31:18;21.98;;;20.67;;
21569;SDS011;57598;50.888;4.746;2022-09-20T14:33:47;21.55;;;20.35;;
21569;SDS011;57598;50.888;4.746;2022-09-20T14:36:19;21.60;;;20.30;;
21569;SDS011;57598;50.888;4.746;2022-09-20T14:38:47;24.60;;;23.20;;
21569;SDS011;57598;50.888;4.746;2022-09-20T14:41:22;22.23;;;20.40;;
21569;SDS011;57598;50.888;4.746;2022-09-20T14:43:52;20.52;;;19.33;;
21569;SDS011;57598;50.888;4.746;2022-09-20T14:46:26;22.23;;;20.60;;
21569;SDS011;57598;50.888;4.746;2022-09-20T14:48:54;21.02;;;19.83;;
21569;SDS011;57598;50.888;4.746;2022-09-20T14:51:43;22.05;;;20.77;;
21569;SDS011;57598;50.888;4.746;2022-09-20T14:54:15;21.63;;;20.33;;
21569;SDS011;57598;50.888;4.746;2022-09-20T14:56:49;21.40;;;20.20;;
21569;SDS011;57598;50.888;4.746;2022-09-20T14:59:22;20.70;;;19.50;;
21569;SDS011;57598;50.888;4.746;2022-09-20T15:01:54;20.88;;;19.67;;
21569;SDS011;57598;50.888;4.746;2022-09-20T15:04:23;19.95;;;18.85;;
21569;SDS011;57598;50.888;4.746;2022-09-20T15:06:53;20.15;;;19.00;;
21569;SDS011;57598;50.888;4.746;2022-09-20T15:09:20;20.65;;;19.45;;
21569;SDS011;57598;50.888;4.746;2022-09-20T15:11:57;21.27;;;20.08;;
21569;SDS011;57598;50.888;4.746;2022-09-20T15:14:25;20.63;;;19.42;;
21569;SDS011;57598;50.888;4.746;2022-09-20T15:16:52;21.05;;;19.85;;
21569;SDS011;57598;50.888;4.746;2022-09-20T15:19:20;21.08;;;19.80;;
21569;SDS011;57598;50.888;4.746;2022-09-20T15:21:47;21.05;;;19.85;;
21569;SDS011;57598;50.888;4.746;2022-09-20T15:24:16;22.50;;;20.98;;
21569;SDS011;57598;50.888;4.746;2022-09-20T15:26:43;20.88;;;19.67;;
21569;SDS011;57598;50.888;4.746;2022-09-20T15:29:12;21.35;;;20.15;;